Arlington, New York
Current Conditions -  °F | °C
As of 1:53 PM on Thursday 23 Oct 2014 (Local Time) from KPOU Reporting Station
Overcast Overcast  
Wind Chill: 43°   Ceiling: 1400
Heat Index: 49°   Visibility: 10mi
Dew Point: 45°   Wind: 16mph
Humidity: 86%   Direction: 360°N
Pressure: 29.75"   Gusts: 24mph
Location:  41.69°N, 73.89°W
Report Text: KPOU 231753Z 36014G21KT 10SM OVC014 09/07 A2975 RMK AO2 RAE38 SLP071 P0002 60029 T00940072 10094 20089 57004
Loading
Personal Weather Stations






























Interactive Weather Map
Tropical Storm Tracking
New forecast layout! Learn more

10-Day Weather Forecast

Advertisements
Track Severe Weather on mobile